Ichtegem, Belgium
Current Conditions -  °F | °C
As of 12:50 PM on Thursday 30 Oct 2014 (Local Time) from EBOS Reporting Station
Clear Clear  
Wind Chill: 59°   Ceiling: Unl
Heat Index: 59°   Visibility: 5mi
Dew Point: 54°   Wind: 8mph
Humidity: 82%   Direction: 180°S
Pressure: 30.15"   Gusts: NA
Location:  51.1°N, 3.02°E
Report Text: EBOS 301150Z 18007KT 150V210 8000 NSC 15/12 Q1021 NOSIG
Loading
Personal Weather Stations






























Interactive Weather Map
Tropical Storm Tracking
New forecast layout! Learn more

10-Day Weather Forecast

Advertisements
Track Severe Weather on mobile